createdAt,value
2022-10-15T00:00:02.168Z,18.37
2022-10-15T00:00:15.360Z,18.37
2022-10-15T00:00:26.117Z,18.37
2022-10-15T00:00:36.847Z,18.37
2022-10-15T00:00:50.064Z,18.37
2022-10-15T00:01:01.812Z,18.37
2022-10-15T00:01:13.630Z,18.37
2022-10-15T00:01:25.404Z,18.39
2022-10-15T00:01:36.268Z,18.37
2022-10-15T00:01:47.071Z,18.37
2022-10-15T00:01:57.887Z,18.39
2022-10-15T00:02:08.668Z,18.37
2022-10-15T00:02:21.127Z,18.37
2022-10-15T00:02:31.869Z,18.37
2022-10-15T00:02:44.329Z,18.37
2022-10-15T00:02:56.808Z,18.39
2022-10-15T00:03:08.339Z,18.37
2022-10-15T00:03:20.527Z,18.37
2022-10-15T00:03:32.221Z,18.39
2022-10-15T00:03:43.939Z,18.39
2022-10-15T00:03:54.692Z,18.36
2022-10-15T00:04:05.400Z,18.37
2022-10-15T00:04:16.127Z,18.39
2022-10-15T00:04:26.877Z,18.37
2022-10-15T00:04:37.673Z,18.37
2022-10-15T00:04:48.420Z,18.37
2022-10-15T00:04:59.198Z,18.39
2022-10-15T00:05:09.930Z,18.37
2022-10-15T00:05:20.680Z,18.37
2022-10-15T00:05:31.480Z,18.37
2022-10-15T00:05:42.220Z,18.37
2022-10-15T00:05:52.969Z,18.37
2022-10-15T00:06:05.928Z,18.37
2022-10-15T00:06:16.681Z,18.37
2022-10-15T00:06:27.426Z,18.37
2022-10-15T00:06:38.167Z,18.39
2022-10-15T00:06:48.900Z,18.36
2022-10-15T00:06:59.681Z,18.37
2022-10-15T00:07:10.468Z,18.37
2022-10-15T00:07:21.466Z,18.37
2022-10-15T00:07:32.461Z,18.37
2022-10-15T00:07:44.143Z,18.37
2022-10-15T00:07:54.893Z,18.37
2022-10-15T00:08:05.640Z,18.37
2022-10-15T00:08:16.386Z,18.37
2022-10-15T00:08:28.130Z,18.37
2022-10-15T00:08:38.899Z,18.37
2022-10-15T00:08:50.638Z,18.37
2022-10-15T00:09:04.391Z,18.39
2022-10-15T00:09:16.110Z,18.37
2022-10-15T00:09:28.113Z,18.37
2022-10-15T00:09:38.892Z,18.36
2022-10-15T00:09:49.621Z,18.39
2022-10-15T00:10:00.352Z,18.37
2022-10-15T00:10:12.840Z,18.37
2022-10-15T00:10:25.319Z,18.36
2022-10-15T00:10:36.104Z,18.37
2022-10-15T00:10:46.912Z,18.37
2022-10-15T00:10:57.749Z,18.37
2022-10-15T00:11:10.220Z,18.37
2022-10-15T00:11:20.981Z,18.37
2022-10-15T00:11:31.744Z,18.36
2022-10-15T00:11:42.501Z,18.37
2022-10-15T00:11:53.244Z,18.37
2022-10-15T00:12:05.004Z,18.37
2022-10-15T00:12:17.952Z,18.39
2022-10-15T00:12:28.702Z,18.37
2022-10-15T00:12:39.520Z,18.39
2022-10-15T00:12:50.343Z,18.36
2022-10-15T00:13:15.437Z,18.37
2022-10-15T00:13:27.882Z,18.37
2022-10-15T00:13:40.369Z,18.36
2022-10-15T00:13:52.094Z,18.37
2022-10-15T00:14:04.558Z,18.36
2022-10-15T00:14:15.324Z,18.37
2022-10-15T00:14:26.073Z,18.36
2022-10-15T00:14:36.806Z,18.37
2022-10-15T00:14:47.552Z,18.37
2022-10-15T00:14:58.298Z,18.37
2022-10-15T00:15:10.724Z,18.37
2022-10-15T00:15:21.454Z,18.37
2022-10-15T00:15:32.191Z,18.37
2022-10-15T00:15:42.926Z,18.37
2022-10-15T00:15:53.675Z,18.36
2022-10-15T00:16:04.404Z,18.37
2022-10-15T00:16:16.094Z,18.37
2022-10-15T00:16:27.816Z,18.36
2022-10-15T00:16:38.590Z,18.36
2022-10-15T00:16:51.534Z,18.37
2022-10-15T00:17:02.265Z,18.37
2022-10-15T00:17:13.005Z,18.37
2022-10-15T00:17:24.018Z,18.36
2022-10-15T00:17:34.962Z,18.36
2022-10-15T00:17:45.711Z,18.37
2022-10-15T00:17:56.465Z,18.36
2022-10-15T00:18:08.154Z,18.37
2022-10-15T00:18:20.864Z,18.37
2022-10-15T00:18:31.667Z,18.36
2022-10-15T00:18:44.104Z,18.36
2022-10-15T00:18:54.875Z,18.37
2022-10-15T00:19:05.614Z,18.36
2022-10-15T00:19:16.346Z,18.37
2022-10-15T00:19:30.524Z,18.37
2022-10-15T00:19:41.305Z,18.37
2022-10-15T00:19:53.015Z,18.37
2022-10-15T00:20:03.786Z,18.36
2022-10-15T00:20:14.507Z,18.36
2022-10-15T00:20:25.238Z,18.36
2022-10-15T00:20:36.025Z,18.37
2022-10-15T00:20:46.765Z,18.37
2022-10-15T00:20:59.230Z,18.36
2022-10-15T00:21:11.627Z,18.36
2022-10-15T00:21:24.081Z,18.36
2022-10-15T00:21:34.803Z,18.36
2022-10-15T00:21:45.534Z,18.37
2022-10-15T00:21:56.270Z,18.37
2022-10-15T00:22:06.999Z,18.36
2022-10-15T00:22:17.726Z,18.36
2022-10-15T00:22:29.718Z,18.37
2022-10-15T00:22:41.446Z,18.36
2022-10-15T00:22:52.202Z,18.36
2022-10-15T00:23:02.934Z,18.36
2022-10-15T00:23:13.668Z,18.37
2022-10-15T00:23:26.866Z,18.37
2022-10-15T00:23:39.309Z,18.36
2022-10-15T00:23:52.038Z,18.37
2022-10-15T00:24:04.487Z,18.36
2022-10-15T00:24:15.223Z,18.36
2022-10-15T00:24:25.977Z,18.36
2022-10-15T00:24:38.406Z,18.36
2022-10-15T00:24:49.164Z,18.39
2022-10-15T00:24:59.896Z,18.37
2022-10-15T00:25:10.623Z,18.36
2022-10-15T00:25:21.360Z,18.36
2022-10-15T00:25:33.798Z,18.37
2022-10-15T00:25:44.529Z,18.37
2022-10-15T00:25:55.268Z,18.36
2022-10-15T00:26:05.998Z,18.36
2022-10-15T00:26:16.726Z,18.37
2022-10-15T00:26:27.459Z,18.36
2022-10-15T00:26:40.661Z,18.36
2022-10-15T00:26:53.420Z,18.34
2022-10-15T00:27:06.629Z,18.36
2022-10-15T00:27:18.359Z,18.36
2022-10-15T00:27:29.099Z,18.36
2022-10-15T00:27:39.817Z,18.36
2022-10-15T00:27:50.537Z,18.36
2022-10-15T00:28:03.752Z,18.36
2022-10-15T00:28:14.507Z,18.37
2022-10-15T00:28:30.580Z,18.37
2022-10-15T00:28:42.608Z,18.36
2022-10-15T00:28:54.377Z,18.36
2022-10-15T00:29:06.237Z,18.36
2022-10-15T00:29:18.731Z,18.36
2022-10-15T00:29:32.439Z,18.34
2022-10-15T00:29:45.458Z,18.36
2022-10-15T00:29:57.934Z,18.36
2022-10-15T00:30:09.666Z,18.36
2022-10-15T00:30:21.357Z,18.34
2022-10-15T00:30:32.090Z,18.36
2022-10-15T00:30:42.822Z,18.36
2022-10-15T00:30:53.649Z,18.34
2022-10-15T00:31:06.096Z,18.36
2022-10-15T00:31:18.533Z,18.36
2022-10-15T00:31:29.322Z,18.34
2022-10-15T00:31:41.508Z,18.36
2022-10-15T00:31:52.251Z,18.34
2022-10-15T00:32:02.977Z,18.36
2022-10-15T00:32:13.689Z,18.36
2022-10-15T00:32:25.006Z,18.36
2022-10-15T00:32:36.010Z,18.34
2022-10-15T00:32:49.220Z,18.36
2022-10-15T00:33:00.930Z,18.36
2022-10-15T00:33:11.658Z,18.36
2022-10-15T00:33:23.354Z,18.36
2022-10-15T00:33:35.783Z,18.36
2022-10-15T00:33:49.360Z,18.34
2022-10-15T00:34:01.613Z,18.37
2022-10-15T00:34:14.053Z,18.36
2022-10-15T00:34:26.315Z,18.36
2022-10-15T00:34:37.050Z,18.36
2022-10-15T00:34:47.818Z,18.36
2022-10-15T00:34:58.561Z,18.36
2022-10-15T00:35:11.011Z,18.36
2022-10-15T00:35:21.749Z,18.34
2022-10-15T00:35:32.481Z,18.37
2022-10-15T00:35:43.222Z,18.36
2022-10-15T00:35:53.991Z,18.37
2022-10-15T00:36:06.693Z,18.36
2022-10-15T00:36:17.430Z,18.36
2022-10-15T00:36:28.161Z,18.36
2022-10-15T00:36:38.899Z,18.36
2022-10-15T00:36:49.620Z,18.36
2022-10-15T00:37:02.052Z,18.36
2022-10-15T00:37:15.283Z,18.34
2022-10-15T00:37:26.064Z,18.34
2022-10-15T00:37:36.833Z,18.36
2022-10-15T00:37:47.580Z,18.36
2022-10-15T00:37:58.322Z,18.36
2022-10-15T00:38:09.052Z,18.36
2022-10-15T00:38:19.784Z,18.36
2022-10-15T00:38:31.472Z,18.37
2022-10-15T00:38:43.693Z,18.36
2022-10-15T00:38:54.425Z,18.34
2022-10-15T00:39:05.213Z,18.34
2022-10-15T00:39:17.640Z,18.34
2022-10-15T00:39:28.381Z,18.36
2022-10-15T00:39:40.332Z,18.34
2022-10-15T00:39:51.273Z,18.36
2022-10-15T00:40:04.735Z,18.36
2022-10-15T00:40:17.444Z,18.34
2022-10-15T00:40:29.865Z,18.34
2022-10-15T00:40:40.601Z,18.36
2022-10-15T00:40:51.335Z,18.34
2022-10-15T00:41:02.067Z,18.34
2022-10-15T00:41:14.262Z,18.34
2022-10-15T00:41:25.987Z,18.34
2022-10-15T00:41:38.195Z,18.37
2022-10-15T00:41:50.634Z,18.36
2022-10-15T00:42:03.833Z,18.36
2022-10-15T00:42:14.601Z,18.34
2022-10-15T00:42:25.646Z,18.36
2022-10-15T00:42:36.636Z,18.36
2022-10-15T00:42:47.363Z,18.36
2022-10-15T00:42:58.133Z,18.36
2022-10-15T00:43:10.323Z,18.36
2022-10-15T00:43:23.449Z,18.36
2022-10-15T00:43:34.197Z,18.34
2022-10-15T00:43:44.916Z,18.34
2022-10-15T00:43:56.623Z,18.34
2022-10-15T00:44:09.357Z,18.34
2022-10-15T00:44:21.620Z,18.34
2022-10-15T00:44:33.826Z,18.34
2022-10-15T00:44:45.594Z,18.34
2022-10-15T00:44:56.353Z,18.34
2022-10-15T00:45:09.549Z,18.36
2022-10-15T00:45:20.283Z,18.36
2022-10-15T00:45:31.045Z,18.34
2022-10-15T00:45:41.775Z,18.36
2022-10-15T00:45:52.509Z,18.36
2022-10-15T00:46:03.254Z,18.36
2022-10-15T00:46:14.036Z,18.36
2022-10-15T00:46:27.236Z,18.34
2022-10-15T00:46:37.977Z,18.34
2022-10-15T00:46:48.747Z,18.34
2022-10-15T00:46:59.484Z,18.34
2022-10-15T00:47:10.229Z,18.36
2022-10-15T00:47:22.429Z,18.36
2022-10-15T00:47:35.248Z,18.34
2022-10-15T00:47:49.616Z,18.34
2022-10-15T00:48:02.092Z,18.34
2022-10-15T00:48:12.828Z,18.34
2022-10-15T00:48:23.559Z,18.34
2022-10-15T00:48:34.286Z,18.36
2022-10-15T00:48:45.019Z,18.34
2022-10-15T00:48:55.840Z,18.36
2022-10-15T00:49:08.306Z,18.36
2022-10-15T00:49:19.989Z,18.34
2022-10-15T00:49:30.717Z,18.34
2022-10-15T00:49:41.469Z,18.34
2022-10-15T00:49:53.700Z,18.34
2022-10-15T00:50:05.400Z,18.34
2022-10-15T00:50:18.108Z,18.34
2022-10-15T00:50:30.597Z,18.34
2022-10-15T00:50:41.373Z,18.34
2022-10-15T00:50:53.798Z,18.34
2022-10-15T00:51:06.255Z,18.34
2022-10-15T00:51:16.977Z,18.34
2022-10-15T00:51:27.706Z,18.36
2022-10-15T00:51:40.173Z,18.36
2022-10-15T00:51:53.376Z,18.34
2022-10-15T00:52:06.588Z,18.34
2022-10-15T00:52:17.361Z,18.34
2022-10-15T00:52:28.090Z,18.34
2022-10-15T00:52:38.819Z,18.34
2022-10-15T00:52:49.549Z,18.34
2022-10-15T00:53:00.303Z,18.34
2022-10-15T00:53:11.998Z,18.34
2022-10-15T00:53:22.730Z,18.34
2022-10-15T00:53:33.468Z,18.34
2022-10-15T00:53:45.668Z,18.34
2022-10-15T00:53:56.402Z,18.34
2022-10-15T00:54:07.141Z,18.34
2022-10-15T00:54:20.357Z,18.33
2022-10-15T00:54:35.001Z,18.34
2022-10-15T00:54:47.768Z,18.33
2022-10-15T00:55:02.000Z,18.34
2022-10-15T00:55:14.440Z,18.34
2022-10-15T00:55:26.142Z,18.34
2022-10-15T00:55:36.872Z,18.34
2022-10-15T00:55:49.321Z,18.33
2022-10-15T00:56:00.076Z,18.34
2022-10-15T00:56:10.818Z,18.34
2022-10-15T00:56:21.570Z,18.34
2022-10-15T00:56:34.029Z,18.34
2022-10-15T00:56:44.953Z,18.33
2022-10-15T00:56:55.723Z,18.33
2022-10-15T00:57:07.449Z,18.33
2022-10-15T00:57:18.189Z,18.34
2022-10-15T00:57:28.922Z,18.33
2022-10-15T00:57:41.381Z,18.34
2022-10-15T00:57:53.619Z,18.34
2022-10-15T00:58:05.407Z,18.33
2022-10-15T00:58:17.848Z,18.34
2022-10-15T00:58:30.281Z,18.34
2022-10-15T00:58:41.969Z,18.34
2022-10-15T00:58:52.723Z,18.34
2022-10-15T00:59:03.462Z,18.34
2022-10-15T00:59:15.884Z,18.34
2022-10-15T00:59:27.579Z,18.33
2022-10-15T00:59:39.297Z,18.33
2022-10-15T00:59:50.033Z,18.33
2022-10-15T01:00:00.821Z,18.34
2022-10-15T01:00:13.290Z,18.33
2022-10-15T01:00:24.989Z,18.34
2022-10-15T01:00:37.692Z,18.34
2022-10-15T01:00:50.492Z,18.33
2022-10-15T01:01:03.770Z,18.34
2022-10-15T01:01:15.521Z,18.34
2022-10-15T01:01:27.841Z,18.33
2022-10-15T01:01:38.609Z,18.34
2022-10-15T01:01:49.351Z,18.34
2022-10-15T01:02:00.112Z,18.34
2022-10-15T01:02:10.853Z,18.34
2022-10-15T01:02:21.955Z,18.34
2022-10-15T01:02:32.999Z,18.33
2022-10-15T01:02:43.742Z,18.33
2022-10-15T01:02:54.476Z,18.34
2022-10-15T01:03:05.221Z,18.34
2022-10-15T01:03:15.941Z,18.33
2022-10-15T01:03:26.683Z,18.33
2022-10-15T01:03:37.403Z,18.33
2022-10-15T01:03:48.130Z,18.33
2022-10-15T01:03:58.893Z,18.34
2022-10-15T01:04:09.611Z,18.34
2022-10-15T01:04:22.055Z,18.34
2022-10-15T01:04:32.791Z,18.33
2022-10-15T01:04:43.521Z,18.33
2022-10-15T01:04:54.243Z,18.34
2022-10-15T01:05:04.976Z,18.34
2022-10-15T01:05:15.715Z,18.34
2022-10-15T01:05:26.432Z,18.34
2022-10-15T01:05:37.177Z,18.34
2022-10-15T01:05:47.893Z,18.34
2022-10-15T01:05:58.623Z,18.34
2022-10-15T01:06:09.352Z,18.34
2022-10-15T01:06:20.084Z,18.34
2022-10-15T01:06:30.806Z,18.33
2022-10-15T01:06:41.534Z,18.34
2022-10-15T01:06:53.954Z,18.33
2022-10-15T01:07:05.801Z,18.33
2022-10-15T01:07:18.798Z,18.34
2022-10-15T01:07:31.205Z,18.34
2022-10-15T01:07:41.939Z,18.33
2022-10-15T01:07:52.665Z,18.34
2022-10-15T01:08:04.361Z,18.34
2022-10-15T01:08:17.345Z,18.34
2022-10-15T01:08:31.053Z,18.34
2022-10-15T01:08:43.494Z,18.33
2022-10-15T01:08:54.285Z,18.34
2022-10-15T01:09:05.027Z,18.33
2022-10-15T01:09:18.215Z,18.33
2022-10-15T01:09:28.953Z,18.33
2022-10-15T01:09:41.386Z,18.34
2022-10-15T01:09:53.336Z,18.33
2022-10-15T01:10:06.057Z,18.34
2022-10-15T01:10:16.791Z,18.34
2022-10-15T01:10:27.554Z,18.33
2022-10-15T01:10:40.755Z,18.34
2022-10-15T01:10:53.193Z,18.34
2022-10-15T01:11:04.947Z,18.33
2022-10-15T01:11:18.174Z,18.33
2022-10-15T01:11:28.933Z,18.33
2022-10-15T01:11:41.384Z,18.33
2022-10-15T01:11:54.085Z,18.33
2022-10-15T01:12:04.812Z,18.34
2022-10-15T01:12:15.545Z,18.34
2022-10-15T01:12:26.398Z,18.33
2022-10-15T01:12:37.183Z,18.33
2022-10-15T01:12:47.905Z,18.34
2022-10-15T01:12:58.634Z,18.31
2022-10-15T01:13:09.369Z,18.31
2022-10-15T01:13:20.145Z,18.33
2022-10-15T01:13:30.876Z,18.34
2022-10-15T01:13:41.636Z,18.34
2022-10-15T01:13:52.368Z,18.33
2022-10-15T01:14:03.096Z,18.31
2022-10-15T01:14:13.826Z,18.33
2022-10-15T01:14:24.564Z,18.34
2022-10-15T01:14:35.305Z,18.34
2022-10-15T01:14:46.029Z,18.33
2022-10-15T01:14:56.790Z,18.33
2022-10-15T01:15:07.517Z,18.33
2022-10-15T01:15:18.248Z,18.34
2022-10-15T01:15:28.974Z,18.33
2022-10-15T01:15:40.676Z,18.31
2022-10-15T01:15:51.414Z,18.34
2022-10-15T01:16:02.200Z,18.34
2022-10-15T01:16:25.291Z,18.33
2022-10-15T01:16:36.015Z,18.33
2022-10-15T01:16:46.744Z,18.31
2022-10-15T01:16:57.466Z,18.33
2022-10-15T01:17:08.196Z,18.33
2022-10-15T01:17:20.541Z,18.33
2022-10-15T01:17:34.398Z,18.33
2022-10-15T01:17:46.137Z,18.33
2022-10-15T01:17:56.886Z,18.33
2022-10-15T01:18:07.618Z,18.33
2022-10-15T01:18:18.360Z,18.33
2022-10-15T01:18:29.105Z,18.33
2022-10-15T01:18:42.330Z,18.33
2022-10-15T01:18:55.973Z,18.33
2022-10-15T01:19:06.748Z,18.33
2022-10-15T01:19:17.508Z,18.33
2022-10-15T01:19:30.708Z,18.31
2022-10-15T01:19:41.458Z,18.31
2022-10-15T01:19:53.892Z,18.33
2022-10-15T01:20:05.662Z,18.33
2022-10-15T01:20:16.418Z,18.33
2022-10-15T01:20:28.838Z,18.33
2022-10-15T01:20:39.571Z,18.31
2022-10-15T01:20:51.968Z,18.33
2022-10-15T01:21:02.719Z,18.33
2022-10-15T01:21:14.937Z,18.33
2022-10-15T01:21:27.398Z,18.33
2022-10-15T01:21:38.173Z,18.31
2022-10-15T01:21:48.960Z,18.33
2022-10-15T01:22:01.458Z,18.34
2022-10-15T01:22:13.928Z,18.33
2022-10-15T01:22:24.678Z,18.33
2022-10-15T01:22:35.419Z,18.33
2022-10-15T01:22:46.177Z,18.31
2022-10-15T01:22:56.919Z,18.33
2022-10-15T01:23:09.049Z,18.33
2022-10-15T01:23:21.254Z,18.33
2022-10-15T01:23:34.409Z,18.33
2022-10-15T01:23:45.140Z,18.31
2022-10-15T01:23:55.869Z,18.31
2022-10-15T01:24:06.621Z,18.33
2022-10-15T01:24:17.349Z,18.33
2022-10-15T01:24:28.092Z,18.33
2022-10-15T01:24:40.523Z,18.33
2022-10-15T01:24:51.239Z,18.31
2022-10-15T01:25:01.979Z,18.33
2022-10-15T01:25:13.690Z,18.33
2022-10-15T01:25:24.422Z,18.31
2022-10-15T01:25:36.124Z,18.31
2022-10-15T01:25:46.842Z,18.33
2022-10-15T01:25:57.580Z,18.33
2022-10-15T01:26:08.319Z,18.33
2022-10-15T01:26:19.053Z,18.31
2022-10-15T01:26:29.782Z,18.31
2022-10-15T01:26:40.509Z,18.33
2022-10-15T01:26:51.241Z,18.31
2022-10-15T01:27:01.970Z,18.31
2022-10-15T01:27:12.707Z,18.33
2022-10-15T01:27:23.688Z,18.31
2022-10-15T01:27:36.199Z,18.33
2022-10-15T01:27:49.527Z,18.33
2022-10-15T01:28:02.231Z,18.33
2022-10-15T01:28:13.008Z,18.33
2022-10-15T01:28:26.233Z,18.31
2022-10-15T01:28:37.004Z,18.33
2022-10-15T01:28:48.996Z,18.31
2022-10-15T01:29:01.219Z,18.31
2022-10-15T01:29:12.038Z,18.33
2022-10-15T01:29:24.484Z,18.31
2022-10-15T01:29:35.252Z,18.31
2022-10-15T01:29:47.686Z,18.31
2022-10-15T01:30:00.892Z,18.31
2022-10-15T01:30:11.704Z,18.31
2022-10-15T01:30:24.150Z,18.31
2022-10-15T01:30:34.883Z,18.31
2022-10-15T01:30:46.572Z,18.31
2022-10-15T01:30:57.322Z,18.31
2022-10-15T01:31:08.104Z,18.33
2022-10-15T01:31:21.304Z,18.31
2022-10-15T01:31:34.251Z,18.31
2022-10-15T01:31:48.463Z,18.31
2022-10-15T01:31:59.221Z,18.31
2022-10-15T01:32:10.947Z,18.31
2022-10-15T01:32:23.403Z,18.31
2022-10-15T01:32:35.854Z,18.31
2022-10-15T01:32:46.581Z,18.31
2022-10-15T01:32:57.319Z,18.31
2022-10-15T01:33:08.063Z,18.33
2022-10-15T01:33:18.842Z,18.31
2022-10-15T01:33:30.526Z,18.31
2022-10-15T01:33:41.253Z,18.31
2022-10-15T01:33:52.013Z,18.31
2022-10-15T01:34:02.774Z,18.31
2022-10-15T01:34:30.097Z,18.33
2022-10-15T01:34:40.832Z,18.31
2022-10-15T01:34:51.566Z,18.29
2022-10-15T01:35:02.367Z,18.31
2022-10-15T01:35:13.103Z,18.31
2022-10-15T01:35:23.825Z,18.31
2022-10-15T01:35:36.049Z,18.29
2022-10-15T01:35:46.765Z,18.31
2022-10-15T01:36:01.296Z,18.31
2022-10-15T01:36:14.601Z,18.31
2022-10-15T01:36:25.345Z,18.31
2022-10-15T01:36:36.078Z,18.33
2022-10-15T01:36:46.814Z,18.31
2022-10-15T01:36:57.535Z,18.31
2022-10-15T01:37:08.315Z,18.31
2022-10-15T01:37:19.055Z,18.29
2022-10-15T01:37:32.265Z,18.31
2022-10-15T01:37:43.026Z,18.31
2022-10-15T01:37:54.721Z,18.31
2022-10-15T01:38:07.735Z,18.29
2022-10-15T01:38:19.685Z,18.29
2022-10-15T01:38:31.391Z,18.33
2022-10-15T01:38:42.157Z,18.31
2022-10-15T01:38:53.856Z,18.33
2022-10-15T01:39:04.617Z,18.31
2022-10-15T01:39:16.324Z,18.33
2022-10-15T01:39:28.535Z,18.31
2022-10-15T01:39:39.265Z,18.31
2022-10-15T01:39:51.013Z,18.29
2022-10-15T01:40:01.760Z,18.29
2022-10-15T01:40:12.529Z,18.29
2022-10-15T01:40:23.275Z,18.29
2022-10-15T01:40:34.015Z,18.31
2022-10-15T01:40:47.217Z,18.31
2022-10-15T01:40:57.954Z,18.29
2022-10-15T01:41:09.668Z,18.29
2022-10-15T01:41:20.409Z,18.31
2022-10-15T01:41:31.135Z,18.31
2022-10-15T01:41:41.890Z,18.31
2022-10-15T01:41:53.599Z,18.31
2022-10-15T01:42:06.027Z,18.33
2022-10-15T01:42:17.728Z,18.31
2022-10-15T01:42:30.955Z,18.31
2022-10-15T01:42:43.427Z,18.29
2022-10-15T01:42:57.155Z,18.29
2022-10-15T01:43:07.877Z,18.31
2022-10-15T01:43:18.697Z,18.29
2022-10-15T01:43:29.417Z,18.29
2022-10-15T01:43:41.826Z,18.31
2022-10-15T01:43:52.561Z,18.29
2022-10-15T01:44:03.314Z,18.29
2022-10-15T01:44:14.019Z,18.31
2022-10-15T01:44:24.755Z,18.31
2022-10-15T01:44:35.487Z,18.29
2022-10-15T01:44:46.245Z,18.29
2022-10-15T01:44:56.996Z,18.31
2022-10-15T01:45:07.743Z,18.29
2022-10-15T01:45:19.447Z,18.29
2022-10-15T01:45:30.181Z,18.29
2022-10-15T01:45:41.878Z,18.29
2022-10-15T01:45:54.311Z,18.29
2022-10-15T01:46:05.035Z,18.29
2022-10-15T01:46:16.728Z,18.29
2022-10-15T01:46:29.435Z,18.29
2022-10-15T01:46:41.858Z,18.29
2022-10-15T01:46:52.600Z,18.29
2022-10-15T01:47:03.330Z,18.31
2022-10-15T01:47:14.070Z,18.31
2022-10-15T01:47:26.195Z,18.29
2022-10-15T01:47:37.989Z,18.29
2022-10-15T01:47:48.779Z,18.31
2022-10-15T01:47:59.509Z,18.29
2022-10-15T01:48:10.236Z,18.31
2022-10-15T01:48:25.459Z,18.31
2022-10-15T01:48:38.169Z,18.29
2022-10-15T01:48:51.394Z,18.29
2022-10-15T01:49:04.589Z,18.31
2022-10-15T01:49:16.301Z,18.29
2022-10-15T01:49:27.040Z,18.29
2022-10-15T01:49:39.498Z,18.29
2022-10-15T01:49:52.233Z,18.29
2022-10-15T01:50:04.412Z,18.29
2022-10-15T01:50:15.299Z,18.29
2022-10-15T01:50:26.040Z,18.29
2022-10-15T01:50:37.731Z,18.29
2022-10-15T01:50:48.483Z,18.29
2022-10-15T01:50:59.247Z,18.29
2022-10-15T01:51:10.955Z,18.29
2022-10-15T01:51:21.689Z,18.28
2022-10-15T01:51:34.155Z,18.28
2022-10-15T01:51:44.882Z,18.29
2022-10-15T01:51:56.572Z,18.29
2022-10-15T01:52:07.302Z,18.29
2022-10-15T01:52:19.586Z,18.29
2022-10-15T01:52:32.058Z,18.31
2022-10-15T01:52:44.490Z,18.31
2022-10-15T01:52:55.238Z,18.29
2022-10-15T01:53:05.971Z,18.29
2022-10-15T01:53:18.448Z,18.29
2022-10-15T01:53:29.188Z,18.28
2022-10-15T01:53:42.381Z,18.28
2022-10-15T01:53:53.113Z,18.29
2022-10-15T01:54:03.887Z,18.28
2022-10-15T01:54:14.631Z,18.29
2022-10-15T01:54:25.359Z,18.29
2022-10-15T01:54:36.083Z,18.28
2022-10-15T01:54:46.811Z,18.29
2022-10-15T01:54:58.503Z,18.29
2022-10-15T01:55:10.722Z,18.29
2022-10-15T01:55:21.462Z,18.29
2022-10-15T01:55:32.203Z,18.31
2022-10-15T01:55:45.405Z,18.29
2022-10-15T01:55:56.147Z,18.29
2022-10-15T01:56:07.842Z,18.29
2022-10-15T01:56:18.582Z,18.29
2022-10-15T01:56:29.337Z,18.29
2022-10-15T01:56:42.544Z,18.29
2022-10-15T01:56:54.241Z,18.29
2022-10-15T01:57:05.004Z,18.29
2022-10-15T01:57:15.766Z,18.29
2022-10-15T01:57:26.737Z,18.28
2022-10-15T01:57:37.713Z,18.31
2022-10-15T01:57:50.905Z,18.28
2022-10-15T01:58:01.684Z,18.28
2022-10-15T01:58:13.385Z,18.29
2022-10-15T01:58:24.119Z,18.28
2022-10-15T01:58:37.543Z,18.29
2022-10-15T01:58:50.822Z,18.29
2022-10-15T01:59:04.060Z,18.29
2022-10-15T01:59:14.803Z,18.29
2022-10-15T01:59:26.504Z,18.28
2022-10-15T01:59:37.274Z,18.28
2022-10-15T01:59:48.012Z,18.29
2022-10-15T02:00:01.223Z,18.28
2022-10-15T02:00:13.704Z,18.29
2022-10-15T02:00:26.149Z,18.29
2022-10-15T02:00:38.365Z,18.29
2022-10-15T02:00:49.139Z,18.29
2022-10-15T02:01:00.867Z,18.28
2022-10-15T02:01:12.587Z,18.29
2022-10-15T02:01:24.267Z,18.29
2022-10-15T02:01:36.740Z,18.29
2022-10-15T02:01:49.951Z,18.28
2022-10-15T02:02:00.684Z,18.28
2022-10-15T02:02:11.438Z,18.28
2022-10-15T02:02:22.529Z,18.28
2022-10-15T02:02:33.520Z,18.29
2022-10-15T02:02:45.733Z,18.28
2022-10-15T02:02:57.463Z,18.28
2022-10-15T02:03:11.200Z,18.27
2022-10-15T02:03:24.384Z,18.29
2022-10-15T02:03:36.084Z,18.28
2022-10-15T02:03:46.806Z,18.28
2022-10-15T02:03:57.535Z,18.28
2022-10-15T02:04:08.294Z,18.28
2022-10-15T02:04:19.018Z,18.29
2022-10-15T02:04:29.744Z,18.29
2022-10-15T02:04:40.505Z,18.28
2022-10-15T02:04:51.249Z,18.28
2022-10-15T02:05:01.977Z,18.29
2022-10-15T02:05:12.705Z,18.28
2022-10-15T02:05:23.459Z,18.28
2022-10-15T02:05:34.326Z,18.28
2022-10-15T02:05:45.977Z,18.27
2022-10-15T02:05:59.167Z,18.29
2022-10-15T02:06:09.900Z,18.29
2022-10-15T02:06:21.594Z,18.29
2022-10-15T02:06:32.335Z,18.29
2022-10-15T02:06:43.095Z,18.28
2022-10-15T02:06:53.825Z,18.28
2022-10-15T02:07:05.546Z,18.28
2022-10-15T02:07:16.305Z,18.28
2022-10-15T02:07:27.081Z,18.28
2022-10-15T02:07:38.086Z,18.28
2022-10-15T02:07:50.537Z,18.28
2022-10-15T02:08:01.278Z,18.29
2022-10-15T02:08:12.006Z,18.28
2022-10-15T02:08:22.765Z,18.28
2022-10-15T02:08:35.207Z,18.28
2022-10-15T02:08:45.936Z,18.28
2022-10-15T02:08:58.628Z,18.28
2022-10-15T02:09:12.393Z,18.28
2022-10-15T02:09:24.842Z,18.28
2022-10-15T02:09:35.577Z,18.28
2022-10-15T02:09:46.408Z,18.28
2022-10-15T02:09:58.103Z,18.29
2022-10-15T02:10:08.829Z,18.28
2022-10-15T02:10:22.027Z,18.28
2022-10-15T02:10:35.351Z,18.28
2022-10-15T02:10:47.846Z,18.27
2022-10-15T02:10:58.573Z,18.28
2022-10-15T02:11:09.307Z,18.28
2022-10-15T02:11:21.760Z,18.27
2022-10-15T02:11:32.467Z,18.28
2022-10-15T02:11:43.220Z,18.27
2022-10-15T02:11:55.647Z,18.27
2022-10-15T02:12:07.355Z,18.28
2022-10-15T02:12:18.105Z,18.27
2022-10-15T02:12:30.536Z,18.28
2022-10-15T02:12:41.288Z,18.28
2022-10-15T02:12:52.029Z,18.28
2022-10-15T02:13:02.777Z,18.28
2022-10-15T02:13:16.260Z,18.28
2022-10-15T02:13:27.007Z,18.28
2022-10-15T02:13:38.708Z,18.28
2022-10-15T02:13:49.449Z,18.28
2022-10-15T02:14:00.178Z,18.27
2022-10-15T02:14:10.907Z,18.28
2022-10-15T02:14:23.331Z,18.28
2022-10-15T02:14:34.105Z,18.28
2022-10-15T02:14:44.830Z,18.28
2022-10-15T02:14:55.559Z,18.28
2022-10-15T02:15:06.301Z,18.27
2022-10-15T02:15:17.040Z,18.27
2022-10-15T02:15:27.770Z,18.27
2022-10-15T02:15:40.228Z,18.28
2022-10-15T02:15:53.439Z,18.27
2022-10-15T02:16:04.176Z,18.28
2022-10-15T02:16:14.936Z,18.28
2022-10-15T02:16:25.659Z,18.27
2022-10-15T02:16:36.398Z,18.28
2022-10-15T02:16:48.092Z,18.27
2022-10-15T02:16:58.829Z,18.27
2022-10-15T02:17:09.590Z,18.28
2022-10-15T02:17:22.021Z,18.28
2022-10-15T02:17:34.950Z,18.27
2022-10-15T02:17:47.673Z,18.28
2022-10-15T02:17:58.415Z,18.27
2022-10-15T02:18:10.852Z,18.28
2022-10-15T02:18:21.579Z,18.28
2022-10-15T02:18:32.339Z,18.27
2022-10-15T02:18:43.112Z,18.27
2022-10-15T02:18:55.525Z,18.27
2022-10-15T02:19:06.260Z,18.28
2022-10-15T02:19:19.375Z,18.27
2022-10-15T02:19:33.642Z,18.27
2022-10-15T02:19:46.125Z,18.27
2022-10-15T02:19:56.897Z,18.27
2022-10-15T02:20:08.603Z,18.27
2022-10-15T02:20:19.371Z,18.28
2022-10-15T02:20:30.114Z,18.28
2022-10-15T02:20:41.851Z,18.27
2022-10-15T02:20:55.061Z,18.27
2022-10-15T02:21:08.003Z,18.27
2022-10-15T02:21:19.737Z,18.27
2022-10-15T02:21:32.164Z,18.27
2022-10-15T02:21:42.950Z,18.27
2022-10-15T02:21:53.724Z,18.27
2022-10-15T02:22:04.461Z,18.28
2022-10-15T02:22:16.152Z,18.28
2022-10-15T02:22:28.581Z,18.27
2022-10-15T02:22:39.321Z,18.27
2022-10-15T02:22:51.029Z,18.27
2022-10-15T02:23:01.778Z,18.27
2022-10-15T02:23:12.501Z,18.28
2022-10-15T02:23:25.922Z,18.27
2022-10-15T02:23:38.375Z,18.28
2022-10-15T02:23:51.083Z,18.27
2022-10-15T02:24:01.871Z,18.28
2022-10-15T02:24:14.316Z,18.27
2022-10-15T02:24:25.032Z,18.28
2022-10-15T02:24:35.763Z,18.27
2022-10-15T02:24:46.512Z,18.27
2022-10-15T02:24:57.265Z,18.27
2022-10-15T02:25:07.991Z,18.27
2022-10-15T02:25:20.432Z,18.28
2022-10-15T02:25:31.173Z,18.27
2022-10-15T02:25:41.896Z,18.27
2022-10-15T02:25:52.631Z,18.27
2022-10-15T02:26:04.333Z,18.25
2022-10-15T02:26:16.772Z,18.27
2022-10-15T02:26:28.984Z,18.27
2022-10-15T02:26:39.724Z,18.28
2022-10-15T02:26:50.463Z,18.27
2022-10-15T02:27:02.154Z,18.27
2022-10-15T02:27:13.836Z,18.27
2022-10-15T02:27:25.553Z,18.28
2022-10-15T02:27:36.314Z,18.27
2022-10-15T02:27:48.597Z,18.27
2022-10-15T02:27:59.362Z,18.27
2022-10-15T02:28:10.106Z,18.27
2022-10-15T02:28:20.872Z,18.27